createdAt,value
2024-03-23T00:00:21.828Z,128.77
2024-03-23T00:01:21.784Z,129.54
2024-03-23T00:02:21.787Z,128.00
2024-03-23T00:03:21.838Z,125.17
2024-03-23T00:04:21.788Z,124.59
2024-03-23T00:05:21.782Z,125.22
2024-03-23T00:06:21.819Z,124.17
2024-03-23T00:07:21.787Z,125.57
2024-03-23T00:08:21.789Z,123.78
2024-03-23T00:09:21.949Z,125.80
2024-03-23T00:10:21.894Z,124.56
2024-03-23T00:11:21.797Z,123.99
2024-03-23T00:12:21.835Z,125.48
2024-03-23T00:13:21.789Z,125.18
2024-03-23T00:14:21.799Z,123.93
2024-03-23T00:15:21.838Z,123.55
2024-03-23T00:16:21.807Z,124.76
2024-03-23T00:17:21.815Z,125.89
2024-03-23T00:18:21.799Z,123.83
2024-03-23T00:19:21.798Z,124.22
2024-03-23T00:20:21.808Z,126.33
2024-03-23T00:21:21.846Z,121.36
2024-03-23T00:22:21.831Z,124.05
2024-03-23T00:23:21.827Z,122.75
2024-03-23T00:24:21.872Z,121.68
2024-03-23T00:25:21.832Z,123.34
2024-03-23T00:26:21.839Z,120.09
2024-03-23T00:27:21.842Z,125.61
2024-03-23T00:28:21.830Z,120.82
2024-03-23T00:29:21.826Z,122.91
2024-03-23T00:30:21.864Z,120.32
2024-03-23T00:31:21.848Z,120.44
2024-03-23T00:32:21.839Z,119.25
2024-03-23T00:33:21.847Z,120.84
2024-03-23T00:34:21.839Z,123.02
2024-03-23T00:35:21.839Z,122.06
2024-03-23T00:36:21.863Z,120.95
2024-03-23T00:37:21.846Z,121.73
2024-03-23T00:38:21.861Z,121.29
2024-03-23T00:39:21.867Z,121.03
2024-03-23T00:40:21.936Z,119.19
2024-03-23T00:41:21.978Z,120.75
2024-03-23T00:42:22.029Z,117.23
2024-03-23T00:43:22.071Z,119.56
2024-03-23T00:44:22.125Z,119.79
2024-03-23T00:45:22.164Z,117.46
2024-03-23T00:46:22.203Z,118.69
2024-03-23T00:47:22.249Z,119.88
2024-03-23T00:48:22.310Z,121.21
2024-03-23T00:49:22.347Z,119.58
2024-03-23T00:50:22.422Z,115.79
2024-03-23T00:51:22.499Z,117.56
2024-03-23T00:52:22.573Z,117.64
2024-03-23T00:53:22.654Z,120.16
2024-03-23T00:54:22.786Z,116.16
2024-03-23T00:55:22.799Z,120.10
2024-03-23T00:56:22.859Z,117.36
2024-03-23T00:57:22.972Z,117.05
2024-03-23T00:58:23.083Z,116.09
2024-03-23T00:59:23.157Z,118.35
2024-03-23T01:00:23.327Z,116.37
2024-03-23T01:01:23.303Z,117.29
2024-03-23T01:02:23.383Z,118.09
2024-03-23T01:03:23.473Z,114.84
2024-03-23T01:04:23.547Z,115.69
2024-03-23T01:05:23.585Z,115.43
2024-03-23T01:06:23.718Z,115.72
2024-03-23T01:07:23.760Z,115.23
2024-03-23T01:08:23.841Z,116.89
2024-03-23T01:09:23.942Z,113.28
2024-03-23T01:10:23.997Z,115.79
2024-03-23T01:11:24.121Z,113.87
2024-03-23T01:12:24.252Z,112.64
2024-03-23T01:13:24.316Z,115.61
2024-03-23T01:14:24.375Z,115.99
2024-03-23T01:15:24.483Z,113.52
2024-03-23T01:16:24.531Z,113.28
2024-03-23T01:17:24.621Z,114.46
2024-03-23T01:18:24.734Z,112.54
2024-03-23T01:19:24.873Z,114.04
2024-03-23T01:20:24.870Z,113.54
2024-03-23T01:21:24.956Z,111.29
2024-03-23T01:22:25.053Z,112.13
2024-03-23T01:23:25.095Z,111.49
2024-03-23T01:24:25.214Z,111.77
2024-03-23T01:25:25.259Z,112.91
2024-03-23T01:26:25.325Z,113.73
2024-03-23T01:27:25.458Z,112.09
2024-03-23T01:28:25.494Z,112.45
2024-03-23T01:29:25.598Z,113.52
2024-03-23T01:30:41.689Z,50.00
2024-03-23T01:31:41.674Z,50.00
2024-03-23T01:32:41.685Z,50.00
2024-03-23T01:33:41.703Z,50.00
2024-03-23T01:34:41.683Z,50.00
2024-03-23T01:35:41.685Z,51.55
2024-03-23T01:36:41.733Z,50.16
2024-03-23T01:37:41.737Z,50.41
2024-03-23T01:38:41.736Z,50.00
2024-03-23T01:39:41.729Z,53.13
2024-03-23T01:40:41.724Z,52.88
2024-03-23T01:41:41.732Z,52.04
2024-03-23T01:42:41.781Z,55.02
2024-03-23T01:43:41.856Z,51.52
2024-03-23T01:44:41.928Z,54.63
2024-03-23T01:45:42.002Z,52.53
2024-03-23T01:46:42.086Z,52.09
2024-03-23T01:47:42.152Z,52.53
2024-03-23T01:48:42.260Z,51.45
2024-03-23T01:49:42.306Z,52.00
2024-03-23T01:50:42.415Z,51.92
2024-03-23T01:51:42.486Z,51.30
2024-03-23T01:52:42.570Z,53.03
2024-03-23T01:53:42.633Z,50.64
2024-03-23T01:54:42.717Z,51.53
2024-03-23T01:55:42.804Z,51.48
2024-03-23T01:56:42.900Z,52.60
2024-03-23T01:57:42.972Z,52.27
2024-03-23T01:58:43.046Z,53.90
2024-03-23T01:59:43.120Z,52.15
2024-03-23T02:00:43.232Z,52.41
2024-03-23T02:01:43.317Z,54.35
2024-03-23T02:02:43.392Z,52.94
2024-03-23T02:03:43.492Z,51.60
2024-03-23T02:04:43.551Z,51.29
2024-03-23T02:05:43.649Z,52.05
2024-03-23T02:06:43.698Z,52.26
2024-03-23T02:07:43.791Z,52.10
2024-03-23T02:08:43.882Z,52.61
2024-03-23T02:09:43.944Z,53.02
2024-03-23T02:10:44.031Z,53.76
2024-03-23T02:11:44.094Z,54.73
2024-03-23T02:12:44.168Z,54.38
2024-03-23T02:13:44.275Z,52.85
2024-03-23T02:14:44.371Z,51.35
2024-03-23T02:15:44.428Z,52.37
2024-03-23T02:16:44.534Z,51.61
2024-03-23T02:17:44.615Z,53.10
2024-03-23T02:18:44.698Z,52.82
2024-03-23T02:19:44.764Z,53.10
2024-03-23T02:20:44.888Z,52.07
2024-03-23T02:21:44.940Z,51.38
2024-03-23T02:22:45.026Z,53.92
2024-03-23T02:23:45.158Z,53.46
2024-03-23T02:24:45.208Z,52.55
2024-03-23T02:25:45.320Z,53.37
2024-03-23T02:26:45.367Z,51.76
2024-03-23T02:27:45.441Z,54.81
2024-03-23T02:28:45.520Z,54.47
2024-03-23T02:29:45.597Z,55.09
2024-03-23T02:30:45.749Z,52.52
2024-03-23T02:31:45.773Z,56.04
2024-03-23T02:32:45.869Z,53.25
2024-03-23T02:33:50.971Z,55.14
2024-03-23T02:34:45.931Z,53.88
2024-03-23T02:35:45.943Z,55.72
2024-03-23T02:36:45.947Z,55.40
2024-03-23T02:37:45.951Z,55.28
2024-03-23T02:38:45.983Z,55.49
2024-03-23T02:39:45.990Z,55.57
2024-03-23T02:40:45.999Z,52.59
2024-03-23T02:41:46.008Z,52.40
2024-03-23T02:42:46.008Z,51.92
2024-03-23T02:43:45.994Z,53.99
2024-03-23T02:44:46.053Z,53.42
2024-03-23T02:45:46.133Z,54.46
2024-03-23T02:46:46.219Z,54.90
2024-03-23T02:47:46.297Z,51.30
2024-03-23T02:48:46.407Z,52.08
2024-03-23T02:49:46.467Z,53.31
2024-03-23T02:50:46.552Z,54.30
2024-03-23T02:51:46.640Z,53.07
2024-03-23T02:52:46.720Z,53.37
2024-03-23T02:53:46.797Z,53.69
2024-03-23T02:54:46.894Z,52.26
2024-03-23T02:55:46.979Z,53.55
2024-03-23T02:56:47.071Z,53.82
2024-03-23T02:57:47.145Z,50.91
2024-03-23T02:58:47.243Z,50.15
2024-03-23T02:59:47.332Z,50.98
2024-03-23T03:00:47.411Z,53.13
2024-03-23T03:01:47.478Z,52.89
2024-03-23T03:02:47.575Z,54.88
2024-03-23T03:03:47.639Z,53.63
2024-03-23T03:04:47.749Z,53.23
2024-03-23T03:05:47.816Z,52.67
2024-03-23T03:06:47.914Z,54.84
2024-03-23T03:07:48.005Z,52.42
2024-03-23T03:08:48.108Z,51.07
2024-03-23T03:09:48.203Z,51.36
2024-03-23T03:10:48.297Z,53.36
2024-03-23T03:11:48.366Z,53.26
2024-03-23T03:12:48.469Z,53.18
2024-03-23T03:13:48.559Z,52.70
2024-03-23T03:14:48.630Z,54.09
2024-03-23T03:15:48.735Z,53.62
2024-03-23T03:16:48.817Z,52.66
2024-03-23T03:17:48.921Z,52.42
2024-03-23T03:18:49.002Z,54.00
2024-03-23T03:19:49.110Z,53.16
2024-03-23T03:20:49.221Z,51.33
2024-03-23T03:21:49.272Z,51.88
2024-03-23T03:22:49.364Z,53.83
2024-03-23T03:23:49.477Z,51.78
2024-03-23T03:24:49.575Z,52.11
2024-03-23T03:25:49.663Z,50.47
2024-03-23T03:26:49.762Z,54.36
2024-03-23T03:27:49.862Z,52.28
2024-03-23T03:28:49.963Z,54.21
2024-03-23T03:29:50.066Z,56.11
2024-03-23T03:30:50.175Z,53.29
2024-03-23T03:31:50.274Z,54.38
2024-03-23T03:32:50.346Z,55.95
2024-03-23T03:33:50.431Z,52.17
2024-03-23T03:34:50.532Z,54.61
2024-03-23T03:35:50.613Z,52.84
2024-03-23T03:36:50.715Z,53.35
2024-03-23T03:37:50.797Z,53.41
2024-03-23T03:38:50.899Z,52.72
2024-03-23T03:39:50.983Z,52.30
2024-03-23T03:40:51.092Z,52.40
2024-03-23T03:41:51.196Z,54.62
2024-03-23T03:42:51.274Z,50.83
2024-03-23T03:43:53.482Z,51.71
2024-03-23T03:44:51.419Z,52.23
2024-03-23T03:45:51.436Z,52.30
2024-03-23T03:46:51.502Z,52.79
2024-03-23T03:47:51.539Z,52.98
2024-03-23T03:48:51.555Z,51.67
2024-03-23T03:49:51.666Z,52.84
2024-03-23T03:50:51.737Z,52.78
2024-03-23T03:51:51.863Z,53.60
2024-03-23T03:52:51.927Z,50.55
2024-03-23T03:53:52.027Z,54.03
2024-03-23T03:54:52.137Z,54.68
2024-03-23T03:55:52.216Z,52.37
2024-03-23T03:56:52.329Z,51.80
2024-03-23T03:57:52.396Z,53.46
2024-03-23T03:58:52.509Z,52.89
2024-03-23T03:59:52.610Z,53.36
2024-03-23T04:00:52.694Z,53.27
2024-03-23T04:01:52.797Z,52.24
2024-03-23T04:02:52.909Z,52.74
2024-03-23T04:03:52.993Z,52.94
2024-03-23T04:04:53.102Z,55.00
2024-03-23T04:05:53.171Z,51.95
2024-03-23T04:06:53.285Z,56.42
2024-03-23T04:07:53.385Z,54.67
2024-03-23T04:08:53.501Z,55.40
2024-03-23T04:09:53.576Z,53.05
2024-03-23T04:10:53.685Z,55.00
2024-03-23T04:11:53.786Z,54.54
2024-03-23T04:12:53.900Z,51.90
2024-03-23T04:13:53.984Z,53.62
2024-03-23T04:14:54.084Z,53.22
2024-03-23T04:15:54.240Z,51.49
2024-03-23T04:16:54.307Z,52.26
2024-03-23T04:17:54.390Z,51.65
2024-03-23T04:18:54.498Z,51.04
2024-03-23T04:19:54.601Z,54.20
2024-03-23T04:20:54.773Z,52.92
2024-03-23T04:21:54.830Z,52.02
2024-03-23T04:22:54.917Z,52.04
2024-03-23T04:23:55.008Z,53.60
2024-03-23T04:24:55.110Z,52.73
2024-03-23T04:25:55.213Z,53.64
2024-03-23T04:26:55.321Z,52.87
2024-03-23T04:27:55.429Z,52.86
2024-03-23T04:28:55.531Z,52.55
2024-03-23T04:29:55.638Z,55.87
2024-03-23T04:30:55.749Z,53.67
2024-03-23T04:31:55.946Z,54.79
2024-03-23T04:32:55.979Z,51.85
2024-03-23T04:33:56.062Z,53.02
2024-03-23T04:34:56.163Z,52.80
2024-03-23T04:35:56.271Z,52.05
2024-03-23T04:36:57.067Z,54.23
2024-03-23T04:37:56.388Z,53.26
2024-03-23T04:38:56.428Z,52.80
2024-03-23T04:39:56.466Z,52.84
2024-03-23T04:40:56.484Z,52.46
2024-03-23T04:41:56.522Z,53.75
2024-03-23T04:42:56.554Z,52.34
2024-03-23T04:43:56.591Z,53.17
2024-03-23T04:44:56.605Z,51.70
2024-03-23T04:45:56.651Z,53.21
2024-03-23T04:46:56.761Z,54.36
2024-03-23T04:47:56.861Z,51.83
2024-03-23T04:48:56.969Z,53.66
2024-03-23T04:49:57.081Z,53.39
2024-03-23T04:50:57.198Z,55.26
2024-03-23T04:51:57.268Z,53.59
2024-03-23T04:52:57.381Z,50.33
2024-03-23T04:53:57.486Z,50.40
2024-03-23T04:54:57.611Z,53.78
2024-03-23T04:55:57.707Z,53.29
2024-03-23T04:56:57.810Z,52.82
2024-03-23T04:57:58.028Z,53.20
2024-03-23T04:58:58.028Z,52.86
2024-03-23T04:59:58.136Z,54.48
2024-03-23T05:00:58.247Z,52.33
2024-03-23T05:01:58.350Z,53.73
2024-03-23T05:02:58.459Z,52.77
2024-03-23T05:03:59.156Z,52.57
2024-03-23T05:04:58.659Z,54.31
2024-03-23T05:05:58.761Z,51.18
2024-03-23T05:06:58.872Z,53.98
2024-03-23T05:07:59.016Z,53.79
2024-03-23T05:08:59.092Z,53.65
2024-03-23T05:09:59.197Z,52.16
2024-03-23T05:10:59.304Z,55.10
2024-03-23T05:11:59.389Z,54.52
2024-03-23T05:12:59.500Z,51.76
2024-03-23T05:13:59.631Z,54.86
2024-03-23T05:14:59.717Z,53.53
2024-03-23T05:15:59.822Z,53.57
2024-03-23T05:16:59.962Z,52.93
2024-03-23T05:18:00.038Z,55.46
2024-03-23T05:19:00.156Z,50.79
2024-03-23T05:20:01.929Z,54.11
2024-03-23T05:21:00.309Z,52.30
2024-03-23T05:22:00.403Z,52.05
2024-03-23T05:23:00.369Z,54.23
2024-03-23T05:24:00.389Z,52.58
2024-03-23T05:25:00.436Z,50.08
2024-03-23T05:26:00.500Z,50.54
2024-03-23T05:27:00.603Z,52.39
2024-03-23T05:28:00.725Z,53.77
2024-03-23T05:29:00.837Z,53.64
2024-03-23T05:30:00.926Z,55.59
2024-03-23T05:31:01.060Z,54.84
2024-03-23T05:32:01.210Z,54.10
2024-03-23T05:33:01.262Z,53.28
2024-03-23T05:34:01.373Z,53.69
2024-03-23T05:35:01.525Z,54.68
2024-03-23T05:36:01.583Z,53.93
2024-03-23T05:37:03.542Z,55.29
2024-03-23T05:38:01.711Z,53.87
2024-03-23T05:39:01.772Z,54.05
2024-03-23T05:40:01.786Z,54.76
2024-03-23T05:41:01.827Z,52.95
2024-03-23T05:42:01.848Z,51.12
2024-03-23T05:43:01.923Z,53.60
2024-03-23T05:44:02.023Z,56.35
2024-03-23T05:45:02.625Z,52.54
2024-03-23T05:46:02.211Z,53.41
2024-03-23T05:47:02.216Z,54.58
2024-03-23T05:48:02.251Z,50.80
2024-03-23T05:49:02.321Z,51.04
2024-03-23T05:50:02.329Z,51.67
2024-03-23T05:51:02.356Z,53.18
2024-03-23T05:52:02.396Z,51.85
2024-03-23T05:53:02.432Z,53.72
2024-03-23T05:54:02.491Z,50.68
2024-03-23T05:55:02.518Z,53.89
2024-03-23T05:56:02.621Z,51.23
2024-03-23T05:57:02.721Z,50.38
2024-03-23T05:58:02.849Z,52.33
2024-03-23T05:59:04.589Z,54.59
2024-03-23T06:00:03.006Z,51.23
2024-03-23T06:01:03.025Z,52.28
2024-03-23T06:02:03.060Z,51.60
2024-03-23T06:03:03.103Z,53.11
2024-03-23T06:04:03.127Z,53.68
2024-03-23T06:05:03.211Z,54.49
2024-03-23T06:06:10.861Z,50.00
2024-03-23T06:07:10.842Z,50.00
2024-03-23T06:08:10.857Z,50.00
2024-03-23T06:09:10.851Z,50.00
2024-03-23T06:10:10.861Z,50.00
2024-03-23T06:11:10.873Z,50.33
2024-03-23T06:12:10.850Z,51.01
2024-03-23T06:13:10.852Z,50.55
2024-03-23T06:14:10.886Z,54.17
2024-03-23T06:15:13.203Z,50.42
2024-03-23T06:16:10.871Z,50.58
2024-03-23T06:17:10.871Z,50.97
2024-03-23T06:18:10.866Z,51.13
2024-03-23T06:19:10.879Z,52.15
2024-03-23T06:20:10.874Z,51.53
2024-03-23T06:21:10.882Z,52.35
2024-03-23T06:22:10.884Z,51.19
2024-03-23T06:23:10.882Z,52.59
2024-03-23T06:24:10.891Z,52.16
2024-03-23T06:25:10.883Z,51.92
2024-03-23T06:26:10.885Z,50.73
2024-03-23T06:27:10.875Z,56.58
2024-03-23T06:28:10.886Z,54.80
2024-03-23T06:29:10.939Z,52.28
2024-03-23T06:30:10.947Z,51.05
2024-03-23T06:31:11.013Z,51.52
2024-03-23T06:32:11.684Z,51.96
2024-03-23T06:33:10.951Z,51.91
2024-03-23T06:34:10.958Z,52.45
2024-03-23T06:35:10.951Z,52.65
2024-03-23T06:36:10.961Z,52.35
2024-03-23T06:37:10.949Z,52.59
2024-03-23T06:38:10.955Z,51.02
2024-03-23T06:39:11.062Z,53.07
2024-03-23T06:40:11.178Z,51.69
2024-03-23T06:41:11.270Z,54.70
2024-03-23T06:42:11.375Z,55.49
2024-03-23T06:43:11.486Z,54.34
2024-03-23T06:44:11.608Z,53.42
2024-03-23T06:45:11.722Z,52.42
2024-03-23T06:46:11.826Z,53.23
2024-03-23T06:47:11.917Z,53.99
2024-03-23T06:48:12.044Z,54.53
2024-03-23T06:49:12.159Z,52.53
2024-03-23T06:50:12.263Z,50.63
2024-03-23T06:51:12.375Z,52.29
2024-03-23T06:52:12.485Z,53.44
2024-03-23T06:53:12.591Z,54.01
2024-03-23T06:54:12.699Z,50.38
2024-03-23T06:55:12.808Z,53.85
2024-03-23T06:56:15.811Z,53.25
2024-03-23T06:57:12.924Z,54.38
2024-03-23T06:58:12.933Z,52.90
2024-03-23T06:59:12.939Z,54.53
2024-03-23T07:00:12.952Z,54.79
2024-03-23T07:01:12.934Z,54.02
2024-03-23T07:02:12.940Z,52.49
2024-03-23T07:03:12.936Z,53.70
2024-03-23T07:04:12.988Z,52.89
2024-03-23T07:05:12.965Z,52.89
2024-03-23T07:06:12.940Z,52.43
2024-03-23T07:07:12.945Z,54.21
2024-03-23T07:08:12.961Z,53.84
2024-03-23T07:09:12.947Z,55.36
2024-03-23T07:10:12.953Z,53.46
2024-03-23T07:11:13.018Z,55.67
2024-03-23T07:12:12.957Z,55.20
2024-03-23T07:13:13.699Z,53.43
2024-03-23T07:14:12.976Z,54.88
2024-03-23T07:15:12.973Z,52.25
2024-03-23T07:16:12.961Z,54.08
2024-03-23T07:17:12.966Z,53.07
2024-03-23T07:18:12.973Z,52.92
2024-03-23T07:19:12.954Z,52.26
2024-03-23T07:20:12.957Z,52.05
2024-03-23T07:21:12.970Z,54.83
2024-03-23T07:22:12.974Z,52.51
2024-03-23T07:23:12.977Z,51.53
2024-03-23T07:24:13.000Z,53.46
2024-03-23T07:25:12.984Z,52.50
2024-03-23T07:26:12.983Z,52.88
2024-03-23T07:27:12.979Z,52.01
2024-03-23T07:28:12.989Z,51.92
2024-03-23T07:29:12.986Z,54.41
2024-03-23T07:30:13.095Z,52.96
2024-03-23T07:31:13.200Z,50.96
2024-03-23T07:32:13.294Z,54.42
2024-03-23T07:33:13.400Z,53.59
2024-03-23T07:34:13.496Z,52.44
2024-03-23T07:35:13.588Z,54.41
2024-03-23T07:36:13.683Z,53.11
2024-03-23T07:37:13.778Z,54.10
2024-03-23T07:38:13.872Z,52.45
2024-03-23T07:39:13.981Z,52.44
2024-03-23T07:40:14.081Z,54.51
2024-03-23T07:41:14.188Z,52.14
2024-03-23T07:42:14.269Z,53.55
2024-03-23T07:43:14.373Z,53.95
2024-03-23T07:44:14.455Z,53.50
2024-03-23T07:45:14.572Z,54.28
2024-03-23T07:46:14.647Z,54.08
2024-03-23T07:47:14.740Z,51.73
2024-03-23T07:48:14.851Z,51.19
2024-03-23T07:49:14.929Z,52.10
2024-03-23T07:50:15.035Z,54.82
2024-03-23T07:51:15.139Z,53.09
2024-03-23T07:52:15.254Z,54.15
2024-03-23T07:53:15.336Z,52.31
2024-03-23T07:54:18.427Z,54.88
2024-03-23T07:55:15.497Z,54.92
2024-03-23T07:56:15.512Z,54.88
2024-03-23T07:57:15.433Z,52.30
2024-03-23T07:58:15.458Z,54.31
2024-03-23T07:59:15.444Z,52.93
2024-03-23T08:00:15.446Z,52.58
2024-03-23T08:01:15.489Z,53.49
2024-03-23T08:02:15.454Z,54.07
2024-03-23T08:03:15.457Z,53.99
2024-03-23T08:04:15.476Z,54.36
2024-03-23T08:05:15.484Z,52.76
2024-03-23T08:06:15.474Z,53.56
2024-03-23T08:07:15.487Z,53.56
2024-03-23T08:08:15.503Z,52.16
2024-03-23T08:09:15.520Z,53.20
2024-03-23T08:10:15.478Z,51.59
2024-03-23T08:11:15.484Z,51.41
2024-03-23T08:12:15.488Z,50.96
2024-03-23T08:13:15.498Z,52.70
2024-03-23T08:14:15.502Z,52.54
2024-03-23T08:15:15.518Z,53.67
2024-03-23T08:16:15.483Z,51.32
2024-03-23T08:17:15.492Z,55.71
2024-03-23T08:18:15.504Z,54.18
2024-03-23T08:19:15.582Z,53.36
2024-03-23T08:20:15.615Z,53.67
2024-03-23T08:21:15.720Z,53.18
2024-03-23T08:22:16.639Z,54.08
2024-03-23T08:23:16.867Z,53.76
2024-03-23T08:24:21.042Z,53.52
2024-03-23T08:25:16.020Z,53.57
2024-03-23T08:26:16.023Z,53.54
2024-03-23T08:27:16.033Z,54.23
2024-03-23T08:28:16.029Z,53.58
2024-03-23T08:29:16.086Z,54.43
2024-03-23T08:30:16.055Z,53.08
2024-03-23T08:31:16.054Z,51.11
2024-03-23T08:32:16.072Z,51.46
2024-03-23T08:33:16.047Z,53.64
2024-03-23T08:34:16.071Z,53.00
2024-03-23T08:35:16.190Z,52.56
2024-03-23T08:36:16.254Z,52.74
2024-03-23T08:37:16.305Z,54.85
2024-03-23T08:38:16.378Z,54.00
2024-03-23T08:39:21.144Z,52.52
2024-03-23T08:40:17.490Z,52.58
2024-03-23T08:41:18.122Z,52.41
2024-03-23T08:42:16.472Z,53.35
2024-03-23T08:43:16.482Z,54.57
2024-03-23T08:44:16.489Z,55.30
2024-03-23T08:45:16.503Z,54.75
2024-03-23T08:46:16.473Z,57.16
2024-03-23T08:47:16.476Z,53.44
2024-03-23T08:48:16.479Z,53.48
2024-03-23T08:49:16.491Z,50.26
2024-03-23T08:50:16.497Z,50.00
2024-03-23T08:51:16.507Z,52.31
2024-03-23T08:52:16.503Z,53.97
2024-03-23T08:53:16.592Z,53.05
2024-03-23T08:54:16.493Z,51.99
2024-03-23T08:55:16.493Z,55.28
2024-03-23T08:56:16.513Z,51.88
2024-03-23T08:57:16.525Z,53.37
2024-03-23T08:58:16.521Z,50.72
2024-03-23T08:59:16.498Z,51.31
2024-03-23T09:00:16.492Z,51.64
2024-03-23T09:01:16.516Z,53.45
2024-03-23T09:02:16.502Z,51.67
2024-03-23T09:03:16.495Z,51.38
2024-03-23T09:04:19.093Z,52.67
2024-03-23T09:05:16.751Z,53.51
2024-03-23T09:06:16.774Z,52.88
2024-03-23T09:07:16.818Z,52.17
2024-03-23T09:08:16.860Z,54.63
2024-03-23T09:09:16.928Z,52.34
2024-03-23T09:10:16.961Z,52.47
2024-03-23T09:11:17.010Z,55.12
2024-03-23T09:12:17.056Z,53.63
2024-03-23T09:13:17.119Z,52.77
2024-03-23T09:14:17.175Z,54.24
2024-03-23T09:15:17.186Z,52.42
2024-03-23T09:16:17.224Z,50.64
2024-03-23T09:17:17.269Z,53.54
2024-03-23T09:18:17.306Z,52.59
2024-03-23T09:19:17.375Z,51.79
2024-03-23T09:20:17.381Z,53.47
2024-03-23T09:21:17.430Z,50.95
2024-03-23T09:22:17.460Z,51.74
2024-03-23T09:23:17.509Z,55.18
2024-03-23T09:24:22.566Z,52.47
2024-03-23T09:25:17.553Z,52.57
2024-03-23T09:26:17.556Z,52.77
2024-03-23T09:27:17.563Z,53.25
2024-03-23T09:28:17.543Z,53.28
2024-03-23T09:29:17.544Z,53.72
2024-03-23T09:30:17.556Z,52.67
2024-03-23T09:31:17.555Z,53.17
2024-03-23T09:32:17.560Z,50.73
2024-03-23T09:33:17.569Z,54.69
2024-03-23T09:34:17.570Z,53.73
2024-03-23T09:35:17.583Z,53.94
2024-03-23T09:36:17.665Z,50.05
2024-03-23T09:37:17.736Z,54.81
2024-03-23T09:38:17.804Z,53.98
2024-03-23T09:39:17.888Z,55.05
2024-03-23T09:40:17.959Z,53.32
2024-03-23T09:41:18.066Z,55.04
2024-03-23T09:42:18.183Z,52.72
2024-03-23T09:43:18.254Z,53.29
2024-03-23T09:44:18.324Z,54.55
2024-03-23T09:45:18.400Z,55.63
2024-03-23T09:46:18.453Z,54.28
2024-03-23T09:47:18.514Z,53.81
2024-03-23T09:48:18.593Z,54.43
2024-03-23T09:49:18.665Z,54.98
2024-03-23T09:50:18.737Z,54.30
2024-03-23T09:51:18.791Z,52.68
2024-03-23T09:52:18.858Z,56.54
2024-03-23T09:53:18.935Z,54.30
2024-03-23T09:54:19.824Z,55.46
2024-03-23T09:55:19.048Z,55.23
2024-03-23T09:56:19.091Z,52.77
2024-03-23T09:57:19.104Z,55.92
2024-03-23T09:58:19.148Z,54.37
2024-03-23T09:59:19.209Z,52.02
2024-03-23T10:00:19.248Z,54.65
2024-03-23T10:01:19.267Z,53.60
2024-03-23T10:02:19.299Z,52.23
2024-03-23T10:03:19.344Z,55.36
2024-03-23T10:04:19.393Z,52.84
2024-03-23T10:05:19.429Z,55.39
2024-03-23T10:06:19.465Z,55.89
2024-03-23T10:07:19.505Z,55.59
2024-03-23T10:08:19.544Z,56.31
2024-03-23T10:09:19.592Z,55.28
2024-03-23T10:10:19.635Z,56.76
2024-03-23T10:11:19.672Z,55.19
2024-03-23T10:12:19.714Z,54.67
2024-03-23T10:13:19.841Z,56.99
2024-03-23T10:14:19.983Z,56.61
2024-03-23T10:15:20.078Z,58.04
2024-03-23T10:16:20.982Z,58.63
2024-03-23T10:17:20.189Z,57.35
2024-03-23T10:18:20.254Z,56.43
2024-03-23T10:19:20.318Z,54.54
2024-03-23T10:20:20.371Z,57.89
2024-03-23T10:21:20.448Z,57.24
2024-03-23T10:22:20.564Z,58.44
2024-03-23T10:23:20.707Z,56.60
2024-03-23T10:24:20.748Z,57.29
2024-03-23T10:25:20.824Z,57.34
2024-03-23T10:26:20.868Z,56.48
2024-03-23T10:27:20.974Z,56.36
2024-03-23T10:28:21.070Z,58.41
2024-03-23T10:29:21.211Z,59.24
2024-03-23T10:30:21.263Z,58.71
2024-03-23T10:31:21.347Z,59.74
2024-03-23T10:32:21.451Z,56.99
2024-03-23T10:33:21.527Z,57.71
2024-03-23T10:34:21.546Z,59.29
2024-03-23T10:35:21.639Z,57.99
2024-03-23T10:36:21.755Z,61.70
2024-03-23T10:37:21.831Z,60.40
2024-03-23T10:38:21.913Z,58.37
2024-03-23T10:39:21.979Z,61.88
2024-03-23T10:40:22.046Z,60.74
2024-03-23T10:41:22.126Z,59.05
2024-03-23T10:42:22.170Z,61.00
2024-03-23T10:43:22.251Z,60.14
2024-03-23T10:44:29.962Z,60.25
2024-03-23T10:45:22.314Z,60.41
2024-03-23T10:46:22.329Z,60.95
2024-03-23T10:47:22.333Z,61.05
2024-03-23T10:48:22.312Z,62.36
2024-03-23T10:49:22.337Z,63.22
2024-03-23T10:50:22.323Z,62.40
2024-03-23T10:51:22.332Z,60.86
2024-03-23T10:52:22.315Z,64.22
2024-03-23T10:53:22.324Z,64.06
2024-03-23T10:54:22.328Z,59.25
2024-03-23T10:55:22.333Z,61.37
2024-03-23T10:56:22.333Z,61.33
2024-03-23T10:57:22.338Z,61.39
2024-03-23T10:58:22.329Z,61.50
2024-03-23T10:59:22.334Z,59.57
2024-03-23T11:00:22.342Z,60.22
2024-03-23T11:01:22.347Z,60.14
2024-03-23T11:02:22.335Z,61.23
2024-03-23T11:03:22.362Z,62.25
2024-03-23T11:04:22.428Z,59.02
2024-03-23T11:05:22.455Z,61.00
2024-03-23T11:06:22.503Z,62.82
2024-03-23T11:07:22.542Z,62.24
2024-03-23T11:08:22.596Z,61.97
2024-03-23T11:09:22.654Z,61.14
2024-03-23T11:10:22.768Z,58.83
2024-03-23T11:11:22.824Z,60.49
2024-03-23T11:12:22.895Z,60.59
2024-03-23T11:13:22.959Z,62.24
2024-03-23T11:14:23.048Z,60.93
2024-03-23T11:15:23.106Z,60.65
2024-03-23T11:16:23.265Z,61.07
2024-03-23T11:17:23.247Z,62.51
2024-03-23T11:18:23.318Z,60.85
2024-03-23T11:19:28.427Z,62.82
2024-03-23T11:20:23.405Z,62.92
2024-03-23T11:21:33.443Z,62.92
2024-03-23T11:22:23.381Z,63.06
2024-03-23T11:23:23.387Z,63.67
2024-03-23T11:24:23.402Z,63.56
2024-03-23T11:25:23.443Z,63.90
2024-03-23T11:26:23.384Z,65.53
2024-03-23T11:27:23.381Z,62.85
2024-03-23T11:28:23.385Z,60.00
2024-03-23T11:29:28.432Z,59.74
2024-03-23T11:30:23.391Z,59.88
2024-03-23T11:31:23.392Z,60.55
2024-03-23T11:32:23.416Z,60.73
2024-03-23T11:33:23.391Z,61.51
2024-03-23T11:34:23.428Z,62.07
2024-03-23T11:35:23.439Z,61.66
2024-03-23T11:36:23.445Z,62.71
2024-03-23T11:37:23.446Z,62.19
2024-03-23T11:38:23.448Z,61.68
2024-03-23T11:39:23.475Z,61.20
2024-03-23T11:40:23.507Z,59.95
2024-03-23T11:41:23.564Z,62.02
2024-03-23T11:42:23.612Z,57.94
2024-03-23T11:43:23.717Z,61.11
2024-03-23T11:44:23.765Z,59.09
2024-03-23T11:45:23.840Z,57.56
2024-03-23T11:46:23.884Z,60.59
2024-03-23T11:47:23.969Z,57.80
2024-03-23T11:48:24.026Z,59.25
2024-03-23T11:49:24.109Z,60.76
2024-03-23T11:50:24.181Z,58.16
2024-03-23T11:51:24.257Z,60.92
2024-03-23T11:52:24.326Z,58.57
2024-03-23T11:53:24.429Z,61.02
2024-03-23T11:54:24.478Z,58.53
2024-03-23T11:55:24.556Z,58.47
2024-03-23T11:56:24.636Z,58.21
2024-03-23T11:57:24.709Z,57.90
2024-03-23T11:58:24.774Z,57.69
2024-03-23T11:59:24.874Z,58.52
2024-03-23T12:00:24.941Z,60.33
2024-03-23T12:01:24.999Z,58.80
2024-03-23T12:02:25.081Z,56.65
2024-03-23T12:03:25.128Z,57.80
2024-03-23T12:04:25.228Z,58.99
2024-03-23T12:05:25.302Z,58.67
2024-03-23T12:06:25.354Z,57.09
2024-03-23T12:07:25.480Z,57.73
2024-03-23T12:08:25.533Z,59.31
2024-03-23T12:09:25.606Z,59.77
2024-03-23T12:10:25.682Z,56.42
2024-03-23T12:11:25.758Z,57.33
2024-03-23T12:12:25.828Z,54.28
2024-03-23T12:13:25.929Z,56.66
2024-03-23T12:14:26.009Z,57.39
2024-03-23T12:15:26.047Z,54.50
2024-03-23T12:16:26.118Z,56.80
2024-03-23T12:17:26.260Z,55.39
2024-03-23T12:18:26.278Z,56.42
2024-03-23T12:19:26.354Z,54.50
2024-03-23T12:20:26.435Z,53.07
2024-03-23T12:21:26.505Z,54.50
2024-03-23T12:22:26.610Z,55.54
2024-03-23T12:23:26.659Z,55.77
2024-03-23T12:24:26.728Z,56.49
2024-03-23T12:25:26.839Z,51.86
2024-03-23T12:26:26.907Z,54.51
2024-03-23T12:27:26.990Z,54.94
2024-03-23T12:28:27.062Z,50.66
2024-03-23T12:29:27.167Z,53.78
2024-03-23T12:30:27.223Z,53.15
2024-03-23T12:31:27.320Z,56.24
2024-03-23T12:32:27.410Z,54.62
2024-03-23T12:33:27.490Z,53.62
2024-03-23T12:34:27.568Z,52.67
2024-03-23T12:35:27.627Z,52.51
2024-03-23T12:36:27.703Z,54.33
2024-03-23T12:37:27.788Z,53.72
2024-03-23T12:38:27.880Z,52.82
2024-03-23T12:39:27.955Z,52.27
2024-03-23T12:40:28.060Z,54.36
2024-03-23T12:41:28.115Z,52.63
2024-03-23T12:42:28.215Z,53.23
2024-03-23T12:43:28.285Z,53.55
2024-03-23T12:44:28.362Z,52.66
2024-03-23T12:45:28.444Z,53.52
2024-03-23T12:46:28.553Z,54.48
2024-03-23T12:47:28.621Z,54.55
2024-03-23T12:48:28.715Z,53.94
2024-03-23T12:49:28.779Z,54.16
2024-03-23T12:50:28.849Z,52.79